createdAt,value
2023-03-11T00:01:20.864Z,88.00
2023-03-11T00:06:23.477Z,87.90
2023-03-11T00:11:27.893Z,87.60
2023-03-11T00:16:30.518Z,87.30
2023-03-11T00:21:33.605Z,87.10
2023-03-11T00:26:39.311Z,86.90
2023-03-11T00:31:42.012Z,86.80
2023-03-11T00:36:44.873Z,86.80
2023-03-11T00:41:52.106Z,87.20
2023-03-11T00:46:57.306Z,87.30
2023-03-11T00:52:03.327Z,87.50
2023-03-11T00:57:10.067Z,87.40
2023-03-11T01:02:15.404Z,87.40
2023-03-11T01:07:18.528Z,87.40
2023-03-11T01:12:28.201Z,87.00
2023-03-11T01:17:31.109Z,86.80
2023-03-11T01:22:35.996Z,86.70
2023-03-11T01:27:42.589Z,86.60
2023-03-11T01:32:46.147Z,86.30
2023-03-11T01:37:49.056Z,85.90
2023-03-11T01:42:55.798Z,85.60
2023-03-11T01:47:58.470Z,85.40
2023-03-11T01:53:07.124Z,85.50
2023-03-11T01:58:19.129Z,85.70
2023-03-11T02:03:27.679Z,85.70
2023-03-11T02:08:32.738Z,85.90
2023-03-11T02:13:37.796Z,86.10
2023-03-11T02:18:43.976Z,86.20
2023-03-11T02:23:54.824Z,86.20
2023-03-11T02:29:01.927Z,86.20
2023-03-11T02:34:06.036Z,86.10
2023-03-11T02:39:12.423Z,86.20
2023-03-11T02:44:17.157Z,86.10
2023-03-11T02:49:21.504Z,86.00
2023-03-11T02:54:24.204Z,86.10
2023-03-11T02:59:30.529Z,86.00
2023-03-11T03:04:33.289Z,86.00
2023-03-11T03:09:37.045Z,85.90
2023-03-11T03:14:43.774Z,85.90
2023-03-11T03:19:46.559Z,85.60
2023-03-11T03:24:49.463Z,85.30
2023-03-11T03:29:53.809Z,85.10
2023-03-11T03:34:56.609Z,85.00
2023-03-11T03:39:59.393Z,85.00
2023-03-11T03:45:09.087Z,85.00
2023-03-11T03:50:12.875Z,85.20
2023-03-11T03:55:15.461Z,85.40
2023-03-11T04:00:22.234Z,85.80
2023-03-11T04:05:24.743Z,86.20
2023-03-11T04:10:27.725Z,86.20
2023-03-11T04:15:32.574Z,86.00
2023-03-11T04:20:35.249Z,85.80
2023-03-11T04:25:38.383Z,86.70
2023-03-11T04:30:42.953Z,86.00
2023-03-11T04:35:45.907Z,86.20
2023-03-11T04:40:48.877Z,86.10
2023-03-11T04:45:53.257Z,85.90
2023-03-11T04:50:55.896Z,85.70
2023-03-11T04:55:58.730Z,85.50
2023-03-11T05:01:02.993Z,85.50
2023-03-11T05:06:06.147Z,85.40
2023-03-11T05:11:09.016Z,85.30
2023-03-11T05:16:13.633Z,85.30
2023-03-11T05:21:16.932Z,85.30
2023-03-11T05:26:19.680Z,85.40
2023-03-11T05:31:26.562Z,85.40
2023-03-11T05:36:29.033Z,85.50
2023-03-11T05:41:31.910Z,85.70
2023-03-11T05:46:42.006Z,85.50
2023-03-11T05:51:44.541Z,85.70
2023-03-11T05:56:47.590Z,85.80
2023-03-11T06:01:53.412Z,85.80
2023-03-11T06:06:56.169Z,85.90
2023-03-11T06:11:58.784Z,85.90
2023-03-11T06:17:04.445Z,86.30
2023-03-11T06:22:07.012Z,87.40
2023-03-11T06:27:09.430Z,88.30
2023-03-11T06:32:15.460Z,88.50
2023-03-11T06:37:18.284Z,88.40
2023-03-11T06:42:20.800Z,88.00
2023-03-11T06:47:27.009Z,87.30
2023-03-11T06:52:30.288Z,86.00
2023-03-11T06:57:33.545Z,85.30
2023-03-11T07:02:37.470Z,84.10
2023-03-11T07:07:39.899Z,82.90
2023-03-11T07:12:42.266Z,81.70
2023-03-11T07:17:46.126Z,81.00
2023-03-11T07:22:48.714Z,79.20
2023-03-11T07:27:51.273Z,78.40
2023-03-11T07:32:55.406Z,77.20
2023-03-11T07:38:04.151Z,75.80
2023-03-11T07:43:06.771Z,73.60
2023-03-11T07:48:10.672Z,74.10
2023-03-11T07:53:13.339Z,72.50
2023-03-11T07:58:15.802Z,71.50
2023-03-11T08:03:19.869Z,70.70
2023-03-11T08:08:22.350Z,69.40
2023-03-11T08:13:24.854Z,69.10
2023-03-11T08:18:29.018Z,67.80
2023-03-11T08:23:31.624Z,66.60
2023-03-11T08:28:34.820Z,66.90
2023-03-11T08:33:40.746Z,66.50
2023-03-11T08:38:43.384Z,62.60
2023-03-11T08:43:45.986Z,63.70
2023-03-11T08:48:51.816Z,62.30
2023-03-11T08:53:54.930Z,60.40
2023-03-11T08:58:57.386Z,62.40
2023-03-11T09:04:01.341Z,61.10
2023-03-11T09:09:03.992Z,59.10
2023-03-11T09:14:06.507Z,59.90
2023-03-11T09:19:10.596Z,58.70
2023-03-11T09:24:12.940Z,57.80
2023-03-11T09:29:18.244Z,58.50
2023-03-11T09:34:22.209Z,57.20
2023-03-11T09:39:24.849Z,56.40
2023-03-11T09:44:33.144Z,56.70
2023-03-11T09:49:55.593Z,55.90
2023-03-11T10:00:26.545Z,55.60
2023-03-11T10:05:30.787Z,55.70
2023-03-11T10:10:40.109Z,54.70
2023-03-11T10:15:49.254Z,54.30
2023-03-11T10:20:58.970Z,54.50
2023-03-11T10:26:07.156Z,53.90
2023-03-11T10:31:20.456Z,54.30
2023-03-11T10:36:34.281Z,53.50
2023-03-11T10:41:43.966Z,54.00
2023-03-11T10:46:46.523Z,53.50
2023-03-11T10:51:52.442Z,54.40
2023-03-11T10:56:57.022Z,53.40
2023-03-11T11:02:01.976Z,53.70
2023-03-11T11:07:30.275Z,53.70
2023-03-11T11:12:32.833Z,52.10
2023-03-11T11:17:35.241Z,52.90
2023-03-11T11:22:47.732Z,52.70
2023-03-11T11:27:55.484Z,52.40
2023-03-11T11:33:21.496Z,52.40
2023-03-11T11:38:27.499Z,52.20
2023-03-11T11:43:42.314Z,52.00
2023-03-11T11:48:52.514Z,51.20
2023-03-11T11:54:01.370Z,51.30
2023-03-11T11:59:09.502Z,50.70
2023-03-11T12:04:31.724Z,50.40
2023-03-11T12:09:43.455Z,50.50
2023-03-11T12:14:53.466Z,51.10
2023-03-11T12:20:00.206Z,51.80
2023-03-11T12:25:18.548Z,52.20
2023-03-11T12:30:25.364Z,51.90
2023-03-11T12:35:31.087Z,52.90
2023-03-11T12:40:48.941Z,53.20
2023-03-11T12:45:52.403Z,52.90
2023-03-11T12:50:55.317Z,53.40
2023-03-11T12:56:10.136Z,53.70
2023-03-11T13:01:37.896Z,54.20
2023-03-11T13:07:15.806Z,54.40
2023-03-11T13:12:41.387Z,54.50
2023-03-11T13:17:55.704Z,55.40
2023-03-11T13:23:27.362Z,56.30
2023-03-11T13:28:52.156Z,55.50
2023-03-11T13:33:56.669Z,55.10
2023-03-11T13:39:25.757Z,54.50
2023-03-11T13:44:34.284Z,53.70
2023-03-11T13:49:42.701Z,54.10
2023-03-11T13:54:48.616Z,54.60
2023-03-11T13:59:54.675Z,55.10
2023-03-11T14:05:03.359Z,55.30
2023-03-11T14:10:24.246Z,55.50
2023-03-11T14:15:28.165Z,55.70
2023-03-11T14:20:30.549Z,56.40
2023-03-11T14:25:32.848Z,56.80
2023-03-11T14:30:36.657Z,57.30
2023-03-11T14:35:39.879Z,58.30
2023-03-11T14:40:42.276Z,58.80
2023-03-11T14:45:46.944Z,58.10
2023-03-11T14:50:51.714Z,57.00
2023-03-11T14:55:58.829Z,56.60
2023-03-11T15:01:09.652Z,56.10
2023-03-11T15:06:16.289Z,56.30
2023-03-11T15:11:24.653Z,57.10
2023-03-11T15:16:34.272Z,58.30
2023-03-11T15:21:36.721Z,58.80
2023-03-11T15:26:45.077Z,58.90
2023-03-11T15:31:52.846Z,59.00
2023-03-11T15:37:03.209Z,59.00
2023-03-11T15:42:15.010Z,59.10
2023-03-11T15:47:24.870Z,59.30
2023-03-11T15:52:29.920Z,59.70
2023-03-11T15:57:32.661Z,60.00
2023-03-11T16:02:40.072Z,60.80
2023-03-11T16:07:46.491Z,62.10
2023-03-11T16:12:49.264Z,62.50
2023-03-11T16:17:55.662Z,62.50
2023-03-11T16:22:59.419Z,62.50
2023-03-11T16:28:03.092Z,62.20
2023-03-11T16:33:06.892Z,62.20
2023-03-11T16:38:09.878Z,62.60
2023-03-11T16:43:13.273Z,62.90
2023-03-11T16:48:16.988Z,63.50
2023-03-11T16:53:19.322Z,63.90
2023-03-11T16:58:21.847Z,64.00
2023-03-11T17:03:31.600Z,64.10
2023-03-11T17:08:37.208Z,64.40
2023-03-11T17:13:39.455Z,64.30
2023-03-11T17:18:44.131Z,64.50
2023-03-11T17:23:46.733Z,64.80
2023-03-11T17:28:49.035Z,64.90
2023-03-11T17:33:53.346Z,65.30
2023-03-11T17:51:53.110Z,67.20
2023-03-11T17:56:55.534Z,66.70
2023-03-11T18:01:57.751Z,66.90
2023-03-11T18:07:01.412Z,67.20
2023-03-11T18:12:04.086Z,67.60
2023-03-11T18:17:06.304Z,67.50
2023-03-11T18:22:09.886Z,67.70
2023-03-11T18:27:11.998Z,68.20
2023-03-11T18:32:14.185Z,68.30
2023-03-11T18:37:17.825Z,68.40
2023-03-11T18:42:20.010Z,68.60
2023-03-11T18:47:22.182Z,68.80
2023-03-11T18:52:25.791Z,68.90
2023-03-11T18:57:28.031Z,69.20
2023-03-11T19:02:33.748Z,69.30
2023-03-11T19:07:54.594Z,69.50
2023-03-11T19:12:57.859Z,70.00
2023-03-11T19:18:06.640Z,69.60
2023-03-11T19:23:11.333Z,69.80
2023-03-11T19:28:13.452Z,70.20
2023-03-11T19:33:15.791Z,70.20
2023-03-11T19:38:19.643Z,70.30
2023-03-11T19:43:21.977Z,70.40
2023-03-11T19:48:24.823Z,70.50
2023-03-11T19:53:28.831Z,70.80
2023-03-11T19:58:31.573Z,71.00
2023-03-11T20:03:33.773Z,71.10
2023-03-11T20:08:37.567Z,71.30
2023-03-11T20:13:39.841Z,71.90
2023-03-11T20:18:42.717Z,71.90
2023-03-11T20:23:46.461Z,72.10
2023-03-11T20:28:48.761Z,72.40
2023-03-11T20:33:52.308Z,72.50
2023-03-11T20:38:56.148Z,72.60
2023-03-11T20:43:58.430Z,72.80
2023-03-11T20:49:01.392Z,72.90
2023-03-11T20:54:05.166Z,72.80
2023-03-11T20:59:08.200Z,72.90
2023-03-11T21:04:11.220Z,73.20
2023-03-11T21:09:15.866Z,73.50
2023-03-11T21:14:20.521Z,73.90
2023-03-11T21:19:23.464Z,73.70
2023-03-11T21:24:27.279Z,73.30
2023-03-11T21:29:29.777Z,73.40
2023-03-11T21:34:32.153Z,73.30
2023-03-11T21:39:35.997Z,73.40
2023-03-11T21:44:38.499Z,73.80
2023-03-11T21:49:40.815Z,73.70
2023-03-11T21:54:44.559Z,73.70
2023-03-11T21:59:46.780Z,74.00
2023-03-11T22:04:49.024Z,74.20
2023-03-11T22:09:52.985Z,74.40
2023-03-11T22:14:55.175Z,74.40
2023-03-11T22:19:57.665Z,74.40
2023-03-11T22:25:01.553Z,74.30
2023-03-11T22:30:04.449Z,74.30
2023-03-11T22:35:07.216Z,74.50
2023-03-11T22:40:12.165Z,74.70
2023-03-11T22:45:14.270Z,75.00
2023-03-11T22:50:17.101Z,75.10
2023-03-11T22:55:20.666Z,75.10
2023-03-11T23:00:23.693Z,75.20
2023-03-11T23:05:26.147Z,75.20
2023-03-11T23:10:29.796Z,75.20
2023-03-11T23:15:31.912Z,75.50
2023-03-11T23:20:35.754Z,75.50
2023-03-11T23:25:40.687Z,75.80
2023-03-11T23:30:42.832Z,76.10
2023-03-11T23:35:44.996Z,76.20
2023-03-11T23:40:48.629Z,76.20
2023-03-11T23:45:51.297Z,76.30
2023-03-11T23:50:53.392Z,76.20
2023-03-11T23:55:56.925Z,76.30
